KCBM

Columbus AFB Airport

Columbus, Mississippi, USA
METAR KCBM 270731Z AUTO 32003KT 10SM SCT023 22/22 A2987 RMK AO2 SLP116 $
Observed Flight Rules
May-27 @ 07:31 UTC (13 minutes ago) Visual Flight Rules
Wind Visibility Clouds
320° at 3 knots 10 miles
  • Scattered at 2,300' AGL
Temperatures Readings
Current 22°C / 72°F
Dewpoint 22°C / 72°F
Humidity 100%
Altimeter 29.87" Hg
Pressure 1011.6 hPa
Elevation 67
METAR KCBM 270731Z AUTO 32003KT 10SM SCT023 22/22 A2987 RMK AO2 SLP116 $
Observed Flight Rules
May-27 @ 07:31 UTC
(13 minutes ago)
VFR
Wind Visibility
320° at 3 knots 10 miles
Clouds
  • Scattered at 2,300' AGL
Temperature Dewpoint
22°C / 72°F 22°C / 72°F
Humidity Altimeter Pressure
100% 29.87" Hg 1011.6 hPa